sensor_id;sensor_type;location;lat;lon;timestamp;P1;durP1;ratioP1;P2;durP2;ratioP2
11422;SDS011;5768;51.476;7.210;2023-07-13T00:03:55;4.15;;;2.10;;
11422;SDS011;5768;51.476;7.210;2023-07-13T00:08:58;6.35;;;2.30;;
11422;SDS011;5768;51.476;7.210;2023-07-13T00:14:02;5.57;;;2.22;;
11422;SDS011;5768;51.476;7.210;2023-07-13T00:19:04;6.00;;;2.20;;
11422;SDS011;5768;51.476;7.210;2023-07-13T00:24:08;4.68;;;2.00;;
11422;SDS011;5768;51.476;7.210;2023-07-13T00:29:15;5.95;;;2.20;;
11422;SDS011;5768;51.476;7.210;2023-07-13T00:34:18;6.65;;;2.00;;
11422;SDS011;5768;51.476;7.210;2023-07-13T00:39:20;4.82;;;2.00;;
11422;SDS011;5768;51.476;7.210;2023-07-13T00:44:25;3.67;;;2.05;;
11422;SDS011;5768;51.476;7.210;2023-07-13T00:49:29;3.90;;;1.80;;
11422;SDS011;5768;51.476;7.210;2023-07-13T00:54:35;4.28;;;1.67;;
11422;SDS011;5768;51.476;7.210;2023-07-13T00:59:42;5.28;;;2.20;;
11422;SDS011;5768;51.476;7.210;2023-07-13T01:04:47;3.47;;;1.52;;
11422;SDS011;5768;51.476;7.210;2023-07-13T01:09:50;7.95;;;1.77;;
11422;SDS011;5768;51.476;7.210;2023-07-13T01:14:57;4.35;;;1.65;;
11422;SDS011;5768;51.476;7.210;2023-07-13T01:20:01;4.65;;;2.20;;
11422;SDS011;5768;51.476;7.210;2023-07-13T01:25:06;10.02;;;1.80;;
11422;SDS011;5768;51.476;7.210;2023-07-13T01:30:09;7.55;;;1.90;;
11422;SDS011;5768;51.476;7.210;2023-07-13T01:35:12;8.32;;;2.38;;
11422;SDS011;5768;51.476;7.210;2023-07-13T01:40:18;7.13;;;2.00;;
11422;SDS011;5768;51.476;7.210;2023-07-13T01:45:20;6.30;;;1.70;;
11422;SDS011;5768;51.476;7.210;2023-07-13T01:50:23;2.88;;;1.50;;
11422;SDS011;5768;51.476;7.210;2023-07-13T01:55:27;3.33;;;1.65;;
11422;SDS011;5768;51.476;7.210;2023-07-13T02:00:31;5.43;;;1.75;;
11422;SDS011;5768;51.476;7.210;2023-07-13T02:05:33;5.80;;;2.00;;
11422;SDS011;5768;51.476;7.210;2023-07-13T02:10:38;7.60;;;2.22;;
11422;SDS011;5768;51.476;7.210;2023-07-13T02:15:40;5.32;;;1.70;;
11422;SDS011;5768;51.476;7.210;2023-07-13T02:20:43;5.13;;;2.15;;
11422;SDS011;5768;51.476;7.210;2023-07-13T02:25:47;4.45;;;1.70;;
11422;SDS011;5768;51.476;7.210;2023-07-13T02:30:49;5.22;;;2.20;;
11422;SDS011;5768;51.476;7.210;2023-07-13T02:35:52;5.75;;;2.35;;
11422;SDS011;5768;51.476;7.210;2023-07-13T02:40:57;4.25;;;1.63;;
11422;SDS011;5768;51.476;7.210;2023-07-13T02:45:59;7.57;;;2.17;;
11422;SDS011;5768;51.476;7.210;2023-07-13T02:51:07;3.47;;;1.80;;
11422;SDS011;5768;51.476;7.210;2023-07-13T02:56:11;5.10;;;1.70;;
11422;SDS011;5768;51.476;7.210;2023-07-13T03:01:13;6.88;;;1.90;;
11422;SDS011;5768;51.476;7.210;2023-07-13T03:06:19;4.38;;;2.13;;
11422;SDS011;5768;51.476;7.210;2023-07-13T03:11:24;4.13;;;1.52;;
11422;SDS011;5768;51.476;7.210;2023-07-13T03:16:27;7.90;;;2.10;;
11422;SDS011;5768;51.476;7.210;2023-07-13T03:21:30;4.68;;;2.20;;
11422;SDS011;5768;51.476;7.210;2023-07-13T03:26:34;5.47;;;1.88;;
11422;SDS011;5768;51.476;7.210;2023-07-13T03:31:36;4.90;;;1.83;;
11422;SDS011;5768;51.476;7.210;2023-07-13T03:36:39;4.35;;;2.10;;
11422;SDS011;5768;51.476;7.210;2023-07-13T03:41:43;3.13;;;1.73;;
11422;SDS011;5768;51.476;7.210;2023-07-13T03:46:45;6.38;;;1.90;;
11422;SDS011;5768;51.476;7.210;2023-07-13T03:51:48;7.20;;;2.05;;
11422;SDS011;5768;51.476;7.210;2023-07-13T03:56:52;4.05;;;1.65;;
11422;SDS011;5768;51.476;7.210;2023-07-13T04:01:55;5.80;;;1.90;;
11422;SDS011;5768;51.476;7.210;2023-07-13T04:06:57;8.13;;;2.50;;
11422;SDS011;5768;51.476;7.210;2023-07-13T04:12:03;6.25;;;2.28;;
11422;SDS011;5768;51.476;7.210;2023-07-13T04:17:06;7.75;;;2.30;;
11422;SDS011;5768;51.476;7.210;2023-07-13T04:22:08;6.68;;;2.17;;
11422;SDS011;5768;51.476;7.210;2023-07-13T04:27:12;3.72;;;1.95;;
11422;SDS011;5768;51.476;7.210;2023-07-13T04:32:15;5.25;;;1.63;;
11422;SDS011;5768;51.476;7.210;2023-07-13T04:37:17;5.72;;;1.92;;
11422;SDS011;5768;51.476;7.210;2023-07-13T04:42:21;7.63;;;2.00;;
11422;SDS011;5768;51.476;7.210;2023-07-13T04:47:24;5.43;;;1.98;;
11422;SDS011;5768;51.476;7.210;2023-07-13T04:52:26;5.00;;;2.10;;
11422;SDS011;5768;51.476;7.210;2023-07-13T04:57:30;4.63;;;1.90;;
11422;SDS011;5768;51.476;7.210;2023-07-13T05:02:33;5.30;;;2.15;;
11422;SDS011;5768;51.476;7.210;2023-07-13T05:07:36;4.07;;;1.73;;
11422;SDS011;5768;51.476;7.210;2023-07-13T05:12:40;3.75;;;1.65;;
11422;SDS011;5768;51.476;7.210;2023-07-13T05:17:42;6.93;;;2.03;;
11422;SDS011;5768;51.476;7.210;2023-07-13T05:22:45;6.65;;;2.00;;
11422;SDS011;5768;51.476;7.210;2023-07-13T05:27:49;5.95;;;2.10;;
11422;SDS011;5768;51.476;7.210;2023-07-13T05:32:52;7.70;;;2.08;;
11422;SDS011;5768;51.476;7.210;2023-07-13T05:37:54;6.28;;;1.98;;
11422;SDS011;5768;51.476;7.210;2023-07-13T05:42:58;5.03;;;2.28;;
11422;SDS011;5768;51.476;7.210;2023-07-13T05:48:01;3.72;;;2.05;;
11422;SDS011;5768;51.476;7.210;2023-07-13T05:53:03;4.78;;;2.28;;
11422;SDS011;5768;51.476;7.210;2023-07-13T05:58:07;6.70;;;2.42;;
11422;SDS011;5768;51.476;7.210;2023-07-13T06:03:10;6.32;;;2.70;;
11422;SDS011;5768;51.476;7.210;2023-07-13T06:08:12;5.97;;;2.22;;
11422;SDS011;5768;51.476;7.210;2023-07-13T06:13:16;7.10;;;2.38;;
11422;SDS011;5768;51.476;7.210;2023-07-13T06:18:19;7.82;;;2.70;;
11422;SDS011;5768;51.476;7.210;2023-07-13T06:23:22;4.55;;;2.40;;
11422;SDS011;5768;51.476;7.210;2023-07-13T06:28:26;9.07;;;3.20;;
11422;SDS011;5768;51.476;7.210;2023-07-13T06:33:29;7.50;;;2.88;;
11422;SDS011;5768;51.476;7.210;2023-07-13T06:38:32;5.25;;;1.88;;
11422;SDS011;5768;51.476;7.210;2023-07-13T06:43:36;5.78;;;2.45;;
11422;SDS011;5768;51.476;7.210;2023-07-13T06:48:39;6.75;;;2.72;;
11422;SDS011;5768;51.476;7.210;2023-07-13T06:53:41;6.97;;;2.40;;
11422;SDS011;5768;51.476;7.210;2023-07-13T06:58:46;6.15;;;2.40;;
11422;SDS011;5768;51.476;7.210;2023-07-13T07:03:48;6.68;;;2.90;;
11422;SDS011;5768;51.476;7.210;2023-07-13T07:08:51;5.00;;;2.30;;
11422;SDS011;5768;51.476;7.210;2023-07-13T07:13:55;5.38;;;2.70;;
11422;SDS011;5768;51.476;7.210;2023-07-13T07:18:57;9.30;;;2.80;;
11422;SDS011;5768;51.476;7.210;2023-07-13T07:24:00;6.47;;;2.50;;
11422;SDS011;5768;51.476;7.210;2023-07-13T07:29:06;8.18;;;2.50;;
11422;SDS011;5768;51.476;7.210;2023-07-13T07:34:08;5.22;;;1.98;;
11422;SDS011;5768;51.476;7.210;2023-07-13T07:39:11;6.30;;;2.40;;
11422;SDS011;5768;51.476;7.210;2023-07-13T07:44:15;4.88;;;2.63;;
11422;SDS011;5768;51.476;7.210;2023-07-13T07:49:18;7.65;;;2.53;;
11422;SDS011;5768;51.476;7.210;2023-07-13T07:54:20;5.38;;;2.42;;
11422;SDS011;5768;51.476;7.210;2023-07-13T07:59:24;7.88;;;3.13;;
11422;SDS011;5768;51.476;7.210;2023-07-13T08:04:26;5.35;;;2.60;;
11422;SDS011;5768;51.476;7.210;2023-07-13T08:09:29;7.15;;;3.13;;
11422;SDS011;5768;51.476;7.210;2023-07-13T08:14:33;6.72;;;3.35;;
11422;SDS011;5768;51.476;7.210;2023-07-13T08:19:36;7.70;;;2.53;;
11422;SDS011;5768;51.476;7.210;2023-07-13T08:24:39;8.95;;;2.97;;
11422;SDS011;5768;51.476;7.210;2023-07-13T08:29:43;6.05;;;2.80;;
11422;SDS011;5768;51.476;7.210;2023-07-13T08:34:46;7.40;;;2.80;;
11422;SDS011;5768;51.476;7.210;2023-07-13T08:39:49;6.95;;;2.80;;
11422;SDS011;5768;51.476;7.210;2023-07-13T08:44:54;8.50;;;2.80;;
11422;SDS011;5768;51.476;7.210;2023-07-13T08:50:08;5.60;;;2.50;;
11422;SDS011;5768;51.476;7.210;2023-07-13T08:55:14;4.75;;;2.58;;
11422;SDS011;5768;51.476;7.210;2023-07-13T09:00:21;9.90;;;3.38;;
11422;SDS011;5768;51.476;7.210;2023-07-13T09:05:36;8.38;;;2.60;;
11422;SDS011;5768;51.476;7.210;2023-07-13T09:10:43;4.78;;;2.58;;
11422;SDS011;5768;51.476;7.210;2023-07-13T09:15:49;8.90;;;3.17;;
11422;SDS011;5768;51.476;7.210;2023-07-13T09:20:54;8.85;;;2.75;;
11422;SDS011;5768;51.476;7.210;2023-07-13T09:26:01;6.65;;;2.58;;
11422;SDS011;5768;51.476;7.210;2023-07-13T09:31:09;5.35;;;2.70;;
11422;SDS011;5768;51.476;7.210;2023-07-13T09:36:19;7.82;;;3.38;;
11422;SDS011;5768;51.476;7.210;2023-07-13T09:41:26;3.97;;;2.35;;
11422;SDS011;5768;51.476;7.210;2023-07-13T09:46:39;5.75;;;2.20;;
11422;SDS011;5768;51.476;7.210;2023-07-13T09:51:45;6.22;;;2.45;;
11422;SDS011;5768;51.476;7.210;2023-07-13T09:56:48;4.07;;;2.20;;
11422;SDS011;5768;51.476;7.210;2023-07-13T10:01:58;4.30;;;2.55;;
11422;SDS011;5768;51.476;7.210;2023-07-13T10:07:04;5.70;;;2.70;;
11422;SDS011;5768;51.476;7.210;2023-07-13T10:12:13;7.22;;;2.10;;
11422;SDS011;5768;51.476;7.210;2023-07-13T10:17:18;7.07;;;2.63;;
11422;SDS011;5768;51.476;7.210;2023-07-13T10:22:27;4.70;;;2.22;;
11422;SDS011;5768;51.476;7.210;2023-07-13T10:27:38;5.43;;;2.35;;
11422;SDS011;5768;51.476;7.210;2023-07-13T10:32:42;6.82;;;2.47;;
11422;SDS011;5768;51.476;7.210;2023-07-13T10:37:47;5.70;;;2.10;;
11422;SDS011;5768;51.476;7.210;2023-07-13T10:42:53;8.35;;;2.97;;
11422;SDS011;5768;51.476;7.210;2023-07-13T10:48:00;6.28;;;2.53;;
11422;SDS011;5768;51.476;7.210;2023-07-13T10:53:03;6.22;;;2.67;;
11422;SDS011;5768;51.476;7.210;2023-07-13T10:58:21;5.80;;;2.22;;
11422;SDS011;5768;51.476;7.210;2023-07-13T11:03:26;7.53;;;2.75;;
11422;SDS011;5768;51.476;7.210;2023-07-13T11:08:32;6.15;;;2.42;;
11422;SDS011;5768;51.476;7.210;2023-07-13T11:13:39;4.35;;;2.25;;
11422;SDS011;5768;51.476;7.210;2023-07-13T11:24:49;2.75;;;1.75;;
11422;SDS011;5768;51.476;7.210;2023-07-13T11:30:06;6.07;;;2.20;;
11422;SDS011;5768;51.476;7.210;2023-07-13T11:35:13;5.50;;;2.15;;
11422;SDS011;5768;51.476;7.210;2023-07-13T11:40:21;6.60;;;2.10;;
11422;SDS011;5768;51.476;7.210;2023-07-13T11:45:28;4.07;;;1.95;;
11422;SDS011;5768;51.476;7.210;2023-07-13T11:50:33;3.83;;;2.13;;
11422;SDS011;5768;51.476;7.210;2023-07-13T11:55:37;8.20;;;2.33;;
11422;SDS011;5768;51.476;7.210;2023-07-13T12:00:40;3.58;;;1.90;;
11422;SDS011;5768;51.476;7.210;2023-07-13T12:05:56;3.88;;;2.10;;
11422;SDS011;5768;51.476;7.210;2023-07-13T12:11:04;5.07;;;2.00;;
11422;SDS011;5768;51.476;7.210;2023-07-13T12:16:17;3.78;;;2.08;;
11422;SDS011;5768;51.476;7.210;2023-07-13T12:21:29;3.88;;;1.50;;
11422;SDS011;5768;51.476;7.210;2023-07-13T12:26:33;1.95;;;1.45;;
11422;SDS011;5768;51.476;7.210;2023-07-13T12:31:36;2.72;;;1.48;;
11422;SDS011;5768;51.476;7.210;2023-07-13T12:36:47;3.15;;;1.90;;
11422;SDS011;5768;51.476;7.210;2023-07-13T12:41:52;4.65;;;1.83;;
11422;SDS011;5768;51.476;7.210;2023-07-13T12:46:56;4.63;;;1.85;;
11422;SDS011;5768;51.476;7.210;2023-07-13T12:52:02;1.95;;;1.50;;
11422;SDS011;5768;51.476;7.210;2023-07-13T12:57:16;7.93;;;2.13;;
11422;SDS011;5768;51.476;7.210;2023-07-13T13:02:22;3.75;;;1.90;;
11422;SDS011;5768;51.476;7.210;2023-07-13T13:07:32;4.07;;;1.60;;
11422;SDS011;5768;51.476;7.210;2023-07-13T13:12:34;3.38;;;1.95;;
11422;SDS011;5768;51.476;7.210;2023-07-13T13:17:37;5.88;;;1.90;;
11422;SDS011;5768;51.476;7.210;2023-07-13T13:22:42;3.28;;;1.77;;
11422;SDS011;5768;51.476;7.210;2023-07-13T13:27:44;3.63;;;2.10;;
11422;SDS011;5768;51.476;7.210;2023-07-13T13:32:47;2.60;;;1.55;;
11422;SDS011;5768;51.476;7.210;2023-07-13T13:37:51;7.18;;;2.47;;
11422;SDS011;5768;51.476;7.210;2023-07-13T13:42:54;5.45;;;2.70;;
11422;SDS011;5768;51.476;7.210;2023-07-13T13:47:57;5.38;;;2.70;;
11422;SDS011;5768;51.476;7.210;2023-07-13T13:53:01;6.95;;;3.40;;
11422;SDS011;5768;51.476;7.210;2023-07-13T13:58:04;6.25;;;2.90;;
11422;SDS011;5768;51.476;7.210;2023-07-13T14:03:08;4.15;;;2.78;;
11422;SDS011;5768;51.476;7.210;2023-07-13T14:08:19;4.60;;;3.17;;
11422;SDS011;5768;51.476;7.210;2023-07-13T14:13:22;3.10;;;2.40;;
11422;SDS011;5768;51.476;7.210;2023-07-13T14:18:28;4.53;;;2.90;;
11422;SDS011;5768;51.476;7.210;2023-07-13T14:23:33;4.47;;;2.55;;
11422;SDS011;5768;51.476;7.210;2023-07-13T14:28:35;5.18;;;2.75;;
11422;SDS011;5768;51.476;7.210;2023-07-13T14:33:40;4.63;;;3.20;;
11422;SDS011;5768;51.476;7.210;2023-07-13T14:38:44;6.07;;;3.78;;
11422;SDS011;5768;51.476;7.210;2023-07-13T14:43:46;6.25;;;3.67;;
11422;SDS011;5768;51.476;7.210;2023-07-13T14:48:49;6.53;;;4.00;;
11422;SDS011;5768;51.476;7.210;2023-07-13T14:53:53;6.53;;;4.00;;
11422;SDS011;5768;51.476;7.210;2023-07-13T14:58:56;5.82;;;4.00;;
11422;SDS011;5768;51.476;7.210;2023-07-13T15:03:58;5.60;;;3.60;;
11422;SDS011;5768;51.476;7.210;2023-07-13T15:09:03;5.45;;;3.67;;
11422;SDS011;5768;51.476;7.210;2023-07-13T15:14:06;4.78;;;3.20;;
11422;SDS011;5768;51.476;7.210;2023-07-13T15:19:09;6.05;;;2.88;;
11422;SDS011;5768;51.476;7.210;2023-07-13T15:24:13;6.30;;;3.00;;
11422;SDS011;5768;51.476;7.210;2023-07-13T15:29:16;4.43;;;2.67;;
11422;SDS011;5768;51.476;7.210;2023-07-13T15:34:20;4.50;;;3.28;;
11422;SDS011;5768;51.476;7.210;2023-07-13T15:39:27;4.35;;;3.05;;
11422;SDS011;5768;51.476;7.210;2023-07-13T15:44:32;6.57;;;3.17;;
11422;SDS011;5768;51.476;7.210;2023-07-13T15:49:35;5.15;;;3.70;;
11422;SDS011;5768;51.476;7.210;2023-07-13T15:54:39;6.28;;;3.42;;
11422;SDS011;5768;51.476;7.210;2023-07-13T15:59:42;8.93;;;4.70;;
11422;SDS011;5768;51.476;7.210;2023-07-13T16:04:45;6.82;;;4.05;;
11422;SDS011;5768;51.476;7.210;2023-07-13T16:09:50;3.80;;;3.00;;
11422;SDS011;5768;51.476;7.210;2023-07-13T16:14:53;4.80;;;3.10;;
11422;SDS011;5768;51.476;7.210;2023-07-13T16:19:55;5.38;;;3.20;;
11422;SDS011;5768;51.476;7.210;2023-07-13T16:25:00;4.50;;;3.33;;
11422;SDS011;5768;51.476;7.210;2023-07-13T16:30:11;6.18;;;4.80;;
11422;SDS011;5768;51.476;7.210;2023-07-13T16:35:15;6.97;;;3.58;;
11422;SDS011;5768;51.476;7.210;2023-07-13T16:40:21;6.45;;;4.20;;
11422;SDS011;5768;51.476;7.210;2023-07-13T16:45:26;6.80;;;4.55;;
11422;SDS011;5768;51.476;7.210;2023-07-13T16:50:34;6.57;;;4.13;;
11422;SDS011;5768;51.476;7.210;2023-07-13T16:55:37;7.47;;;4.75;;
11422;SDS011;5768;51.476;7.210;2023-07-13T17:00:40;7.47;;;4.20;;
11422;SDS011;5768;51.476;7.210;2023-07-13T17:05:44;4.82;;;4.32;;
11422;SDS011;5768;51.476;7.210;2023-07-13T17:10:51;5.25;;;4.20;;
11422;SDS011;5768;51.476;7.210;2023-07-13T17:15:54;5.43;;;4.55;;
11422;SDS011;5768;51.476;7.210;2023-07-13T17:20:58;5.80;;;3.75;;
11422;SDS011;5768;51.476;7.210;2023-07-13T17:26:03;5.28;;;3.83;;
11422;SDS011;5768;51.476;7.210;2023-07-13T17:31:06;4.72;;;3.63;;
11422;SDS011;5768;51.476;7.210;2023-07-13T17:36:14;6.25;;;3.40;;
11422;SDS011;5768;51.476;7.210;2023-07-13T17:41:19;6.35;;;4.07;;
11422;SDS011;5768;51.476;7.210;2023-07-13T17:46:23;3.70;;;3.40;;
11422;SDS011;5768;51.476;7.210;2023-07-13T17:51:29;4.05;;;3.35;;
11422;SDS011;5768;51.476;7.210;2023-07-13T17:56:32;3.20;;;2.90;;
11422;SDS011;5768;51.476;7.210;2023-07-13T18:01:35;5.28;;;3.22;;
11422;SDS011;5768;51.476;7.210;2023-07-13T18:06:41;4.35;;;3.17;;
11422;SDS011;5768;51.476;7.210;2023-07-13T18:11:54;4.85;;;3.13;;
11422;SDS011;5768;51.476;7.210;2023-07-13T18:16:58;4.00;;;3.08;;
11422;SDS011;5768;51.476;7.210;2023-07-13T18:22:02;4.93;;;2.95;;
11422;SDS011;5768;51.476;7.210;2023-07-13T18:27:12;4.45;;;2.78;;
11422;SDS011;5768;51.476;7.210;2023-07-13T18:32:15;4.68;;;2.58;;
11422;SDS011;5768;51.476;7.210;2023-07-13T18:37:21;4.00;;;2.58;;
11422;SDS011;5768;51.476;7.210;2023-07-13T18:42:25;5.60;;;2.88;;
11422;SDS011;5768;51.476;7.210;2023-07-13T18:47:28;4.55;;;3.00;;
11422;SDS011;5768;51.476;7.210;2023-07-13T18:52:35;4.18;;;2.78;;
11422;SDS011;5768;51.476;7.210;2023-07-13T18:57:42;3.58;;;2.95;;
11422;SDS011;5768;51.476;7.210;2023-07-13T19:02:45;5.38;;;3.17;;
11422;SDS011;5768;51.476;7.210;2023-07-13T19:07:47;3.47;;;3.15;;
11422;SDS011;5768;51.476;7.210;2023-07-13T19:12:52;5.95;;;3.47;;
11422;SDS011;5768;51.476;7.210;2023-07-13T19:17:58;5.53;;;3.80;;
11422;SDS011;5768;51.476;7.210;2023-07-13T19:23:03;5.50;;;3.78;;
11422;SDS011;5768;51.476;7.210;2023-07-13T19:28:30;7.55;;;4.22;;
11422;SDS011;5768;51.476;7.210;2023-07-13T19:33:38;6.40;;;4.10;;
11422;SDS011;5768;51.476;7.210;2023-07-13T19:38:40;5.45;;;3.90;;
11422;SDS011;5768;51.476;7.210;2023-07-13T19:43:47;4.85;;;3.90;;
11422;SDS011;5768;51.476;7.210;2023-07-13T19:48:50;4.65;;;3.78;;
11422;SDS011;5768;51.476;7.210;2023-07-13T19:53:54;4.95;;;4.10;;
11422;SDS011;5768;51.476;7.210;2023-07-13T19:59:04;6.32;;;4.20;;
11422;SDS011;5768;51.476;7.210;2023-07-13T20:04:19;5.18;;;4.05;;
11422;SDS011;5768;51.476;7.210;2023-07-13T20:09:22;4.05;;;3.50;;
11422;SDS011;5768;51.476;7.210;2023-07-13T20:14:29;4.97;;;3.92;;
11422;SDS011;5768;51.476;7.210;2023-07-13T20:19:34;4.30;;;3.90;;
11422;SDS011;5768;51.476;7.210;2023-07-13T20:24:37;5.85;;;3.80;;
11422;SDS011;5768;51.476;7.210;2023-07-13T20:29:41;5.68;;;3.80;;
11422;SDS011;5768;51.476;7.210;2023-07-13T20:34:43;4.38;;;3.88;;
11422;SDS011;5768;51.476;7.210;2023-07-13T20:39:46;4.97;;;3.75;;
11422;SDS011;5768;51.476;7.210;2023-07-13T20:44:50;6.35;;;4.05;;
11422;SDS011;5768;51.476;7.210;2023-07-13T20:49:53;4.15;;;3.75;;
11422;SDS011;5768;51.476;7.210;2023-07-13T20:54:55;6.22;;;4.00;;
11422;SDS011;5768;51.476;7.210;2023-07-13T21:00:03;4.40;;;3.80;;
11422;SDS011;5768;51.476;7.210;2023-07-13T21:05:14;7.95;;;4.00;;
11422;SDS011;5768;51.476;7.210;2023-07-13T21:10:20;6.43;;;4.07;;
11422;SDS011;5768;51.476;7.210;2023-07-13T21:15:27;5.38;;;4.03;;
11422;SDS011;5768;51.476;7.210;2023-07-13T21:20:32;5.80;;;4.10;;
11422;SDS011;5768;51.476;7.210;2023-07-13T21:25:37;5.13;;;3.75;;
11422;SDS011;5768;51.476;7.210;2023-07-13T21:30:41;5.60;;;3.80;;
11422;SDS011;5768;51.476;7.210;2023-07-13T21:35:44;5.28;;;3.80;;
11422;SDS011;5768;51.476;7.210;2023-07-13T21:40:47;9.57;;;4.45;;
11422;SDS011;5768;51.476;7.210;2023-07-13T21:45:53;5.80;;;4.30;;
11422;SDS011;5768;51.476;7.210;2023-07-13T21:50:56;7.00;;;3.78;;
11422;SDS011;5768;51.476;7.210;2023-07-13T21:55:59;7.20;;;4.20;;
11422;SDS011;5768;51.476;7.210;2023-07-13T22:01:12;6.25;;;4.13;;
11422;SDS011;5768;51.476;7.210;2023-07-13T22:06:19;8.30;;;4.25;;
11422;SDS011;5768;51.476;7.210;2023-07-13T22:11:30;5.13;;;3.80;;
11422;SDS011;5768;51.476;7.210;2023-07-13T22:16:35;5.97;;;3.78;;
11422;SDS011;5768;51.476;7.210;2023-07-13T22:21:38;5.95;;;4.25;;
11422;SDS011;5768;51.476;7.210;2023-07-13T22:26:40;6.07;;;4.75;;
11422;SDS011;5768;51.476;7.210;2023-07-13T22:31:44;10.05;;;4.68;;
11422;SDS011;5768;51.476;7.210;2023-07-13T22:36:47;6.68;;;4.40;;
11422;SDS011;5768;51.476;7.210;2023-07-13T22:41:50;5.20;;;4.22;;
11422;SDS011;5768;51.476;7.210;2023-07-13T22:46:55;5.90;;;4.28;;
11422;SDS011;5768;51.476;7.210;2023-07-13T22:51:59;7.53;;;5.03;;
11422;SDS011;5768;51.476;7.210;2023-07-13T22:57:03;6.75;;;5.30;;
11422;SDS011;5768;51.476;7.210;2023-07-13T23:02:09;7.38;;;5.55;;
11422;SDS011;5768;51.476;7.210;2023-07-13T23:07:18;7.68;;;5.13;;
11422;SDS011;5768;51.476;7.210;2023-07-13T23:12:24;8.45;;;5.10;;
11422;SDS011;5768;51.476;7.210;2023-07-13T23:17:31;6.15;;;4.95;;
11422;SDS011;5768;51.476;7.210;2023-07-13T23:22:35;9.25;;;5.50;;
11422;SDS011;5768;51.476;7.210;2023-07-13T23:27:37;7.63;;;4.55;;
11422;SDS011;5768;51.476;7.210;2023-07-13T23:32:41;6.80;;;5.30;;
11422;SDS011;5768;51.476;7.210;2023-07-13T23:37:46;6.10;;;5.25;;
11422;SDS011;5768;51.476;7.210;2023-07-13T23:42:50;5.95;;;4.93;;
11422;SDS011;5768;51.476;7.210;2023-07-13T23:47:55;8.25;;;4.88;;
11422;SDS011;5768;51.476;7.210;2023-07-13T23:53:00;8.18;;;4.60;;
11422;SDS011;5768;51.476;7.210;2023-07-13T23:58:03;8.02;;;4.60;;
